createdAt,value
2017-11-04T00:00:23.111Z,87.90
2017-11-04T00:02:52.729Z,87.70
2017-11-04T00:05:21.579Z,87.70
2017-11-04T00:07:50.435Z,87.60
2017-11-04T00:10:19.295Z,87.50
2017-11-04T00:12:48.912Z,87.60
2017-11-04T00:15:17.757Z,87.70
2017-11-04T00:17:46.603Z,87.70
2017-11-04T00:20:15.457Z,87.70
2017-11-04T00:22:44.129Z,87.70
2017-11-04T00:25:12.820Z,87.70
2017-11-04T00:27:41.502Z,87.70
2017-11-04T00:30:10.368Z,87.80
2017-11-04T00:32:39.238Z,88.00
2017-11-04T00:35:08.081Z,87.80
2017-11-04T00:37:36.969Z,87.70
2017-11-04T00:40:05.821Z,87.80
2017-11-04T00:42:34.664Z,87.80
2017-11-04T00:45:03.502Z,87.80
2017-11-04T00:47:32.364Z,87.80
2017-11-04T00:50:01.987Z,88.00
2017-11-04T00:52:30.839Z,88.00
2017-11-04T00:54:59.683Z,88.10
2017-11-04T00:57:28.541Z,88.20
2017-11-04T00:59:58.159Z,88.30
2017-11-04T01:02:27.013Z,88.10
2017-11-04T01:04:55.859Z,88.20
2017-11-04T01:07:24.710Z,88.60
2017-11-04T01:09:53.551Z,89.40
2017-11-04T01:12:22.413Z,89.60
2017-11-04T01:14:52.046Z,88.70
2017-11-04T01:17:20.905Z,88.60
2017-11-04T01:19:50.518Z,88.70
2017-11-04T01:22:20.124Z,88.80
2017-11-04T01:24:49.757Z,88.80
2017-11-04T01:27:18.604Z,88.80
2017-11-04T01:29:47.462Z,89.00
2017-11-04T01:32:17.226Z,89.20
2017-11-04T01:34:46.842Z,89.10
2017-11-04T01:37:15.706Z,89.00
2017-11-04T01:39:44.784Z,89.00
2017-11-04T01:42:13.650Z,89.20
2017-11-04T01:44:42.506Z,89.20
2017-11-04T01:47:11.812Z,89.20
2017-11-04T01:49:40.665Z,89.20
2017-11-04T01:52:09.539Z,89.30
2017-11-04T01:54:37.734Z,89.90
2017-11-04T01:57:06.583Z,89.50
2017-11-04T01:59:35.449Z,89.60
2017-11-04T02:02:05.080Z,90.00
2017-11-04T02:04:33.960Z,90.00
2017-11-04T02:07:02.160Z,90.00
2017-11-04T02:09:31.018Z,90.00
2017-11-04T02:11:59.877Z,90.00
2017-11-04T02:14:28.727Z,90.00
2017-11-04T02:16:57.574Z,90.00
2017-11-04T02:19:26.879Z,90.20
2017-11-04T02:21:57.095Z,90.20
2017-11-04T02:24:25.940Z,90.20
2017-11-04T02:26:54.788Z,90.30
2017-11-04T02:29:24.420Z,90.50
2017-11-04T02:31:53.263Z,90.50
2017-11-04T02:34:22.124Z,90.50
2017-11-04T02:36:50.967Z,90.60
2017-11-04T02:39:20.592Z,90.60
2017-11-04T02:41:49.446Z,90.50
2017-11-04T02:44:18.286Z,90.50
2017-11-04T02:46:47.143Z,90.50
2017-11-04T02:49:16.769Z,90.60
2017-11-04T02:51:46.486Z,90.70
2017-11-04T02:54:15.333Z,90.70
2017-11-04T02:56:44.166Z,90.70
2017-11-04T02:59:13.012Z,90.70
2017-11-04T03:01:41.859Z,90.80
2017-11-04T03:04:10.712Z,90.90
2017-11-04T03:06:39.557Z,90.80
2017-11-04T03:09:09.170Z,91.20
2017-11-04T03:11:38.023Z,91.20
2017-11-04T03:14:06.872Z,91.10
2017-11-04T03:16:35.736Z,91.10
2017-11-04T03:19:04.620Z,91.10
2017-11-04T03:21:33.303Z,91.10
2017-11-04T03:24:02.194Z,91.30
2017-11-04T03:26:31.040Z,91.40
2017-11-04T03:28:59.919Z,91.60
2017-11-04T03:31:28.781Z,91.60
2017-11-04T03:33:57.659Z,91.70
2017-11-04T03:36:26.515Z,91.70
2017-11-04T03:38:56.123Z,91.80
2017-11-04T03:41:25.746Z,92.00
2017-11-04T03:43:54.606Z,91.90
2017-11-04T03:46:23.460Z,91.90
2017-11-04T03:48:52.313Z,92.00
2017-11-04T03:51:21.982Z,91.90
2017-11-04T03:53:50.831Z,91.90
2017-11-04T03:56:19.678Z,91.90
2017-11-04T03:58:48.609Z,91.90
2017-11-04T04:01:17.466Z,91.80
2017-11-04T04:03:46.315Z,91.70
2017-11-04T04:06:15.152Z,92.00
2017-11-04T04:08:44.766Z,92.00
2017-11-04T04:11:14.073Z,92.00
2017-11-04T04:13:43.698Z,91.80
2017-11-04T04:16:12.540Z,91.80
2017-11-04T04:18:41.404Z,91.80
2017-11-04T04:21:10.245Z,91.80
2017-11-04T04:23:40.763Z,91.90
2017-11-04T04:26:09.618Z,91.80
2017-11-04T04:28:38.482Z,91.80
2017-11-04T04:31:07.325Z,91.80
2017-11-04T04:33:36.182Z,91.90
2017-11-04T04:36:05.115Z,91.80
2017-11-04T04:38:33.792Z,91.80
2017-11-04T04:41:02.474Z,91.80
2017-11-04T04:43:31.170Z,91.70
2017-11-04T04:46:00.088Z,91.80
2017-11-04T04:48:29.627Z,91.90
2017-11-04T04:50:58.694Z,91.90
2017-11-04T04:53:28.315Z,92.00
2017-11-04T04:55:57.934Z,92.10
2017-11-04T04:58:26.789Z,92.10
2017-11-04T05:00:55.680Z,92.20
2017-11-04T05:03:24.529Z,92.10
2017-11-04T05:05:53.374Z,92.30
2017-11-04T05:08:22.976Z,92.30
2017-11-04T05:10:51.836Z,92.20
2017-11-04T05:13:20.700Z,92.20
2017-11-04T05:15:49.566Z,92.20
2017-11-04T05:18:19.172Z,92.10
2017-11-04T05:20:48.823Z,92.10
2017-11-04T05:23:17.665Z,92.10
2017-11-04T05:25:47.280Z,92.10
2017-11-04T05:28:16.733Z,92.00
2017-11-04T05:30:44.942Z,92.00
2017-11-04T05:33:13.792Z,92.00
2017-11-04T05:35:42.634Z,92.00
2017-11-04T05:38:12.257Z,92.00
2017-11-04T05:40:41.878Z,92.00
2017-11-04T05:43:10.730Z,92.00
2017-11-04T05:45:39.599Z,92.10
2017-11-04T05:48:08.458Z,92.00
2017-11-04T05:50:37.126Z,92.00
2017-11-04T05:53:05.984Z,92.00
2017-11-04T05:55:34.686Z,92.00
2017-11-04T05:58:04.297Z,92.00
2017-11-04T06:00:33.903Z,92.10
2017-11-04T06:03:02.776Z,92.00
2017-11-04T06:05:31.462Z,92.00
2017-11-04T06:08:00.322Z,92.00
2017-11-04T06:10:29.200Z,92.00
2017-11-04T06:12:58.055Z,92.00
2017-11-04T06:15:27.664Z,91.90
2017-11-04T06:17:57.290Z,91.80
2017-11-04T06:20:26.946Z,92.00
2017-11-04T06:22:55.795Z,91.70
2017-11-04T06:25:24.639Z,91.80
2017-11-04T06:27:53.490Z,91.70
2017-11-04T06:30:22.334Z,91.70
2017-11-04T06:32:51.186Z,91.60
2017-11-04T06:35:19.873Z,91.60
2017-11-04T06:37:48.990Z,91.60
2017-11-04T06:40:17.850Z,91.60
2017-11-04T06:42:46.720Z,91.60
2017-11-04T06:45:16.344Z,91.60
2017-11-04T06:47:45.182Z,91.50
2017-11-04T06:50:14.027Z,91.60
2017-11-04T06:52:42.876Z,91.50
2017-11-04T06:55:12.502Z,91.40
2017-11-04T06:57:42.235Z,91.20
2017-11-04T07:00:11.135Z,91.20
2017-11-04T07:02:51.276Z,91.20
2017-11-04T07:05:20.991Z,91.10
2017-11-04T07:07:49.884Z,91.00
2017-11-04T07:10:18.852Z,91.00
2017-11-04T07:12:48.191Z,90.80
2017-11-04T07:15:17.494Z,90.80
2017-11-04T07:17:46.346Z,90.70
2017-11-04T07:20:16.592Z,90.70
2017-11-04T07:22:45.473Z,90.60
2017-11-04T07:25:15.194Z,90.60
2017-11-04T07:27:45.063Z,90.60
2017-11-04T07:30:13.587Z,90.50
2017-11-04T07:32:44.016Z,90.40
2017-11-04T07:35:12.893Z,90.30
2017-11-04T07:37:42.510Z,90.10
2017-11-04T07:40:12.706Z,90.10
2017-11-04T07:42:41.570Z,90.00
2017-11-04T07:45:10.428Z,89.90
2017-11-04T07:47:39.127Z,89.80
2017-11-04T07:50:08.655Z,89.80
2017-11-04T07:52:37.511Z,89.60
2017-11-04T07:55:06.044Z,89.30
2017-11-04T07:57:34.883Z,89.10
2017-11-04T08:00:03.407Z,88.70
2017-11-04T08:02:32.424Z,88.20
2017-11-04T08:05:01.279Z,87.80
2017-11-04T08:07:30.196Z,87.20
2017-11-04T08:10:04.091Z,86.60
2017-11-04T08:12:38.502Z,85.40
2017-11-04T08:17:43.014Z,84.90
2017-11-04T08:20:11.870Z,84.50
2017-11-04T08:22:41.447Z,84.10
2017-11-04T08:25:10.294Z,84.10
2017-11-04T08:27:39.903Z,83.00
2017-11-04T08:30:09.510Z,82.80
2017-11-04T08:32:38.362Z,82.90
2017-11-04T08:35:07.218Z,82.70
2017-11-04T08:37:36.055Z,82.50
2017-11-04T08:40:04.582Z,82.40
2017-11-04T08:42:33.253Z,82.10
2017-11-04T08:45:02.696Z,82.10
2017-11-04T08:47:31.369Z,82.10
2017-11-04T08:50:00.060Z,81.80
2017-11-04T08:52:28.734Z,81.70
2017-11-04T08:54:57.411Z,81.50
2017-11-04T08:57:26.311Z,81.50
2017-11-04T08:59:54.841Z,81.40
2017-11-04T09:02:25.664Z,81.20
2017-11-04T09:04:54.530Z,81.00
2017-11-04T09:07:23.530Z,81.20
2017-11-04T09:09:52.386Z,80.80
2017-11-04T09:12:22.020Z,80.00
2017-11-04T09:14:51.146Z,80.00
2017-11-04T09:17:20.027Z,79.60
2017-11-04T09:19:48.970Z,79.40
2017-11-04T09:22:18.607Z,77.90
2017-11-04T09:24:48.064Z,77.90
2017-11-04T09:27:16.921Z,77.80
2017-11-04T09:29:47.265Z,77.30
2017-11-04T09:32:16.123Z,77.40
2017-11-04T09:34:44.990Z,77.10
2017-11-04T09:37:14.605Z,77.00
2017-11-04T09:39:43.449Z,77.00
2017-11-04T09:42:12.324Z,76.50
2017-11-04T09:44:41.188Z,76.20
2017-11-04T09:47:10.064Z,75.60
2017-11-04T09:49:39.686Z,75.50
2017-11-04T09:52:08.550Z,75.40
2017-11-04T09:54:38.443Z,74.30
2017-11-04T09:57:07.311Z,74.30
2017-11-04T09:59:36.155Z,74.00
2017-11-04T10:02:05.779Z,73.40
2017-11-04T10:04:35.400Z,73.00
2017-11-04T10:07:04.263Z,72.80
2017-11-04T10:09:33.910Z,72.50
2017-11-04T10:12:03.860Z,72.50
2017-11-04T10:14:32.718Z,72.20
2017-11-04T10:17:00.903Z,71.90
2017-11-04T10:19:29.760Z,71.50
2017-11-04T10:21:58.610Z,71.20
2017-11-04T10:24:27.454Z,70.80
2017-11-04T10:26:56.300Z,70.20
2017-11-04T10:29:24.819Z,69.90
2017-11-04T10:31:53.679Z,69.80
2017-11-04T10:34:23.347Z,69.90
2017-11-04T10:36:52.320Z,69.90
2017-11-04T10:39:21.377Z,70.00
2017-11-04T10:41:51.182Z,69.80
2017-11-04T10:44:20.027Z,69.80
2017-11-04T10:46:48.885Z,69.80
2017-11-04T10:49:17.728Z,69.80
2017-11-04T10:51:46.571Z,69.70
2017-11-04T10:54:17.158Z,69.40
2017-11-04T10:56:46.015Z,69.30
2017-11-04T10:59:14.876Z,69.30
2017-11-04T11:01:45.066Z,68.70
2017-11-04T11:04:13.927Z,68.80
2017-11-04T11:06:42.806Z,69.00
2017-11-04T11:09:11.665Z,68.80
2017-11-04T11:11:41.853Z,68.40
2017-11-04T11:14:10.716Z,68.40
2017-11-04T11:16:39.575Z,68.20
2017-11-04T11:19:09.190Z,67.60
2017-11-04T11:21:38.813Z,67.40
2017-11-04T11:24:07.667Z,67.40
2017-11-04T11:26:36.514Z,67.00
2017-11-04T11:29:05.194Z,66.90
2017-11-04T11:31:34.098Z,66.60
2017-11-04T11:34:02.952Z,66.60
2017-11-04T11:36:33.986Z,66.50
2017-11-04T11:39:02.688Z,66.40
2017-11-04T11:41:31.564Z,66.70
2017-11-04T11:44:01.189Z,66.40
2017-11-04T11:46:30.046Z,66.40
2017-11-04T11:48:58.907Z,66.30
2017-11-04T11:51:27.588Z,66.10
2017-11-04T11:53:56.435Z,65.90
2017-11-04T11:56:26.050Z,66.00
2017-11-04T11:58:55.666Z,66.20
2017-11-04T12:01:24.525Z,66.20
2017-11-04T12:03:53.386Z,66.20
2017-11-04T12:06:22.240Z,65.90
2017-11-04T12:08:51.090Z,66.50
2017-11-04T12:11:19.944Z,66.30
2017-11-04T12:13:48.787Z,66.50
2017-11-04T12:16:18.406Z,66.50
2017-11-04T12:18:48.019Z,66.70
2017-11-04T12:21:17.642Z,66.60
2017-11-04T12:23:46.505Z,66.50
2017-11-04T12:26:16.917Z,66.60
2017-11-04T12:28:45.766Z,66.60
2017-11-04T12:31:14.748Z,66.70
2017-11-04T12:33:43.647Z,66.60
2017-11-04T12:36:12.498Z,66.50
2017-11-04T12:38:42.124Z,66.70
2017-11-04T12:41:10.988Z,66.70
2017-11-04T12:43:39.839Z,66.70
2017-11-04T12:46:08.697Z,66.80
2017-11-04T12:48:38.316Z,66.70
2017-11-04T12:51:07.940Z,66.90
2017-11-04T12:53:36.795Z,66.90
2017-11-04T12:56:06.456Z,67.00
2017-11-04T12:58:35.314Z,67.00
2017-11-04T13:01:04.170Z,66.80
2017-11-04T13:03:33.039Z,67.10
2017-11-04T13:06:01.895Z,67.00
2017-11-04T13:08:30.950Z,66.70
2017-11-04T13:11:00.049Z,66.80
2017-11-04T13:13:29.671Z,67.20
2017-11-04T13:15:59.287Z,67.20
2017-11-04T13:18:28.911Z,67.20
2017-11-04T13:20:57.801Z,67.00
2017-11-04T13:23:26.671Z,67.20
2017-11-04T13:25:56.286Z,67.00
2017-11-04T13:28:26.047Z,67.20
2017-11-04T13:30:54.926Z,67.20
2017-11-04T13:33:24.097Z,67.20
2017-11-04T13:35:52.951Z,67.30
2017-11-04T13:38:21.833Z,67.40
2017-11-04T13:40:50.686Z,67.30
2017-11-04T13:43:19.551Z,67.40
2017-11-04T13:45:49.511Z,66.90
2017-11-04T13:48:18.374Z,66.80
2017-11-04T13:50:47.241Z,67.20
2017-11-04T13:53:18.404Z,67.20
2017-11-04T13:55:47.279Z,67.20
2017-11-04T13:58:16.895Z,67.20
2017-11-04T14:00:46.537Z,67.30
2017-11-04T14:03:15.399Z,67.20
2017-11-04T14:05:45.010Z,67.40
2017-11-04T14:08:14.619Z,67.40
2017-11-04T14:10:43.470Z,67.50
2017-11-04T14:13:12.327Z,67.40
2017-11-04T14:15:40.839Z,67.60
2017-11-04T14:18:09.687Z,67.70
2017-11-04T14:20:38.607Z,67.90
2017-11-04T14:23:07.459Z,68.10
2017-11-04T14:25:37.077Z,68.40
2017-11-04T14:28:05.928Z,68.30
2017-11-04T14:30:34.792Z,68.70
2017-11-04T14:33:03.703Z,68.70
2017-11-04T14:35:32.551Z,68.90
2017-11-04T14:38:01.417Z,69.00
2017-11-04T14:40:31.046Z,69.10
2017-11-04T14:43:00.522Z,69.00
2017-11-04T14:45:30.135Z,69.20
2017-11-04T14:47:59.753Z,69.40
2017-11-04T14:50:28.604Z,69.40
2017-11-04T14:52:57.294Z,69.70
2017-11-04T14:55:26.159Z,69.80
2017-11-04T14:57:55.039Z,70.00
2017-11-04T15:00:23.909Z,70.00
2017-11-04T15:02:52.790Z,70.20
2017-11-04T15:05:22.416Z,70.40
2017-11-04T15:07:51.260Z,70.40
2017-11-04T15:10:20.134Z,70.70
2017-11-04T15:12:49.003Z,70.80
2017-11-04T15:15:17.704Z,70.80
2017-11-04T15:17:46.561Z,71.00
2017-11-04T15:20:15.436Z,71.10
2017-11-04T15:22:45.095Z,72.40
2017-11-04T15:25:13.623Z,72.40
2017-11-04T15:27:42.491Z,72.40
2017-11-04T15:30:11.359Z,72.50
2017-11-04T15:32:40.209Z,72.60
2017-11-04T15:35:09.843Z,72.90
2017-11-04T15:37:38.690Z,72.90
2017-11-04T15:40:07.536Z,73.00
2017-11-04T15:42:36.370Z,73.20
2017-11-04T15:45:05.228Z,73.30
2017-11-04T15:47:34.288Z,73.60
2017-11-04T15:50:03.139Z,73.70
2017-11-04T15:52:32.010Z,73.90
2017-11-04T15:55:01.052Z,74.10
2017-11-04T15:57:30.669Z,74.60
2017-11-04T15:59:59.580Z,74.50
2017-11-04T16:02:28.436Z,74.80
2017-11-04T16:04:57.398Z,75.10
2017-11-04T16:07:26.262Z,75.00
2017-11-04T16:09:55.860Z,75.90
2017-11-04T16:12:24.443Z,82.70
2017-11-04T16:14:53.311Z,80.30
2017-11-04T16:17:22.179Z,77.60
2017-11-04T16:19:51.711Z,76.20
2017-11-04T16:22:21.366Z,75.30
2017-11-04T16:24:50.229Z,75.30
2017-11-04T16:27:19.103Z,75.40
2017-11-04T16:29:47.970Z,74.80
2017-11-04T16:32:16.825Z,73.90
2017-11-04T16:34:45.676Z,73.20
2017-11-04T16:37:15.298Z,72.90
2017-11-04T16:39:45.405Z,72.70
2017-11-04T16:42:15.018Z,74.40
2017-11-04T16:44:43.929Z,74.50
2017-11-04T16:47:12.774Z,75.90
2017-11-04T16:49:41.656Z,73.90
2017-11-04T16:52:10.529Z,72.90
2017-11-04T16:54:39.433Z,71.90
2017-11-04T16:57:08.308Z,73.30
2017-11-04T16:59:37.169Z,74.30
2017-11-04T17:02:06.034Z,75.00
2017-11-04T17:04:35.976Z,76.20
2017-11-04T17:07:04.567Z,76.20
2017-11-04T17:09:33.473Z,77.50
2017-11-04T17:12:02.346Z,77.90
2017-11-04T17:14:32.150Z,78.30
2017-11-04T17:17:01.902Z,78.40
2017-11-04T17:19:30.796Z,78.50
2017-11-04T17:21:59.685Z,78.70
2017-11-04T17:24:28.565Z,78.80
2017-11-04T17:26:57.419Z,78.90
2017-11-04T17:29:27.064Z,79.10
2017-11-04T17:31:55.940Z,79.10
2017-11-04T17:34:24.794Z,79.30
2017-11-04T17:36:54.414Z,79.50
2017-11-04T17:39:24.649Z,79.50
2017-11-04T17:41:55.273Z,79.70
2017-11-04T17:44:25.676Z,79.60
2017-11-04T17:46:55.475Z,79.60
2017-11-04T17:49:25.331Z,79.70
2017-11-04T17:51:55.381Z,80.00
2017-11-04T17:54:24.264Z,80.00
2017-11-04T17:56:53.122Z,80.30
2017-11-04T17:59:21.966Z,80.30
2017-11-04T18:01:50.888Z,80.40
2017-11-04T18:04:19.765Z,81.20
2017-11-04T18:06:50.028Z,80.80
2017-11-04T18:09:19.668Z,81.10
2017-11-04T18:11:48.518Z,81.00
2017-11-04T18:14:17.359Z,81.20
2017-11-04T18:16:46.224Z,81.40
2017-11-04T18:19:15.934Z,81.60
2017-11-04T18:21:44.799Z,81.60
2017-11-04T18:24:13.708Z,81.70
2017-11-04T18:26:42.558Z,81.80
2017-11-04T18:29:11.452Z,81.90
2017-11-04T18:31:40.317Z,82.00
2017-11-04T18:34:09.160Z,82.20
2017-11-04T18:36:42.700Z,82.50
2017-11-04T18:39:11.823Z,82.40
2017-11-04T18:41:52.469Z,82.70
2017-11-04T18:44:22.110Z,82.80
2017-11-04T18:46:51.010Z,83.00
2017-11-04T18:49:20.777Z,83.80
2017-11-04T18:51:50.431Z,83.80
2017-11-04T18:54:20.213Z,83.20
2017-11-04T18:56:49.055Z,83.40
2017-11-04T18:59:18.920Z,83.70
2017-11-04T19:01:48.591Z,83.80
2017-11-04T19:04:17.441Z,83.70
2017-11-04T19:06:45.979Z,83.80
2017-11-04T19:09:14.836Z,83.90
2017-11-04T19:11:45.424Z,84.10
2017-11-04T19:14:14.282Z,84.10
2017-11-04T19:16:42.870Z,84.10
2017-11-04T19:19:11.719Z,84.20
2017-11-04T19:21:40.995Z,84.20
2017-11-04T19:24:10.542Z,84.40
2017-11-04T19:26:46.375Z,84.30
2017-11-04T19:29:16.149Z,84.20
2017-11-04T19:31:45.867Z,84.20
2017-11-04T19:34:14.804Z,84.50
2017-11-04T19:36:43.739Z,84.50
2017-11-04T19:39:13.512Z,84.50
2017-11-04T19:41:42.855Z,84.50
2017-11-04T19:44:11.708Z,84.50
2017-11-04T19:46:41.366Z,85.20
2017-11-04T19:49:11.103Z,84.60
2017-11-04T19:51:39.959Z,84.50
2017-11-04T19:54:10.822Z,84.50
2017-11-04T19:56:40.528Z,84.60
2017-11-04T19:59:09.120Z,84.50
2017-11-04T20:01:42.314Z,84.60
2017-11-04T20:04:13.944Z,84.70
2017-11-04T20:06:43.164Z,84.60
2017-11-04T20:09:14.347Z,84.60
2017-11-04T20:11:43.594Z,84.60
2017-11-04T20:14:12.804Z,84.60
2017-11-04T20:16:42.933Z,84.70
2017-11-04T20:19:12.190Z,84.70
2017-11-04T20:21:41.067Z,84.80
2017-11-04T20:24:10.699Z,84.70
2017-11-04T20:26:39.616Z,85.30
2017-11-04T20:29:08.511Z,84.60
2017-11-04T20:31:38.970Z,84.70
2017-11-04T20:34:07.803Z,84.70
2017-11-04T20:36:37.237Z,84.80
2017-11-04T20:39:06.444Z,84.80
2017-11-04T20:41:36.226Z,84.80
2017-11-04T20:44:04.647Z,84.80
2017-11-04T20:46:33.491Z,84.60
2017-11-04T20:49:03.994Z,84.60
2017-11-04T20:51:33.190Z,84.70
2017-11-04T20:54:02.483Z,84.60
2017-11-04T20:56:32.903Z,84.90
2017-11-04T21:01:34.790Z,84.80
2017-11-04T21:04:03.770Z,84.80
2017-11-04T21:06:32.653Z,84.90
2017-11-04T21:09:01.499Z,84.80
2017-11-04T21:11:30.255Z,84.90
2017-11-04T21:13:59.115Z,84.90
2017-11-04T21:16:27.977Z,85.00
2017-11-04T21:18:56.871Z,85.60
2017-11-04T21:21:26.172Z,85.10
2017-11-04T21:23:55.032Z,85.20
2017-11-04T21:26:25.209Z,85.20
2017-11-04T21:28:54.064Z,85.20
2017-11-04T21:31:23.024Z,85.20
2017-11-04T21:33:51.872Z,85.50
2017-11-04T21:36:20.730Z,85.60
2017-11-04T21:38:50.343Z,85.60
2017-11-04T21:41:19.956Z,85.60
2017-11-04T21:43:48.808Z,85.60
2017-11-04T21:46:18.489Z,85.70
2017-11-04T21:48:47.404Z,85.90
2017-11-04T21:51:16.264Z,86.20
2017-11-04T21:53:45.110Z,86.20
2017-11-04T21:56:14.730Z,86.30
2017-11-04T21:58:43.587Z,86.30
2017-11-04T22:01:12.444Z,86.50
2017-11-04T22:03:46.350Z,86.60
2017-11-04T22:06:15.203Z,86.70
2017-11-04T22:08:45.715Z,87.10
2017-11-04T22:11:14.575Z,87.10
2017-11-04T22:13:43.421Z,87.00
2017-11-04T22:16:13.093Z,87.20
2017-11-04T22:18:41.959Z,87.20
2017-11-04T22:21:10.804Z,87.30
2017-11-04T22:23:40.435Z,87.40
2017-11-04T22:26:09.271Z,87.30
2017-11-04T22:28:37.919Z,87.60
2017-11-04T22:31:06.783Z,87.60
2017-11-04T22:33:36.428Z,87.70
2017-11-04T22:36:05.297Z,87.60
2017-11-04T22:38:34.172Z,87.70
2017-11-04T22:41:03.794Z,87.90
2017-11-04T22:43:32.647Z,88.40
2017-11-04T22:46:01.496Z,87.90
2017-11-04T22:48:30.362Z,87.90
2017-11-04T22:50:59.974Z,88.30
2017-11-04T22:53:28.839Z,88.30
2017-11-04T22:55:57.691Z,88.40
2017-11-04T22:58:26.549Z,88.60
2017-11-04T23:00:55.355Z,88.80
2017-11-04T23:03:24.226Z,88.90
2017-11-04T23:05:54.835Z,88.90
2017-11-04T23:08:24.175Z,88.80
2017-11-04T23:10:53.019Z,89.10
2017-11-04T23:13:21.871Z,89.20
2017-11-04T23:15:51.487Z,89.50
2017-11-04T23:18:20.357Z,89.50
2017-11-04T23:20:49.211Z,89.40
2017-11-04T23:23:18.056Z,89.60
2017-11-04T23:25:46.939Z,89.70
2017-11-04T23:28:15.784Z,89.60
2017-11-04T23:30:44.828Z,89.80
2017-11-04T23:33:13.686Z,90.00
2017-11-04T23:35:43.302Z,89.90
2017-11-04T23:38:12.150Z,89.90
2017-11-04T23:40:40.992Z,89.90
2017-11-04T23:43:09.843Z,90.00
2017-11-04T23:45:38.355Z,90.00
2017-11-04T23:48:07.979Z,90.10
2017-11-04T23:50:36.819Z,90.10
2017-11-04T23:53:05.667Z,90.00
2017-11-04T23:55:34.532Z,90.00
2017-11-04T23:58:04.153Z,90.10
